sensor_id;sensor_type;location;lat;lon;timestamp;pressure;altitude;pressure_sealevel;temperature;humidity
48216;BME280;34005;48.844;10.098;2023-02-02T00:01:20;97146.69;;;4.32;74.38
48216;BME280;34005;48.844;10.098;2023-02-02T00:03:49;97145.91;;;4.32;74.81
48216;BME280;34005;48.844;10.098;2023-02-02T00:06:18;97151.06;;;4.32;75.17
48216;BME280;34005;48.844;10.098;2023-02-02T00:08:46;97152.03;;;4.31;75.14
48216;BME280;34005;48.844;10.098;2023-02-02T00:11:14;97140.31;;;4.27;75.64
48216;BME280;34005;48.844;10.098;2023-02-02T00:13:42;97142.19;;;4.25;75.21
48216;BME280;34005;48.844;10.098;2023-02-02T00:16:35;97146.66;;;4.23;76.52
48216;BME280;34005;48.844;10.098;2023-02-02T00:19:06;97141.91;;;4.18;75.65
48216;BME280;34005;48.844;10.098;2023-02-02T00:21:35;97137.81;;;4.16;76.34
48216;BME280;34005;48.844;10.098;2023-02-02T00:24:04;97144.59;;;4.17;76.40
48216;BME280;34005;48.844;10.098;2023-02-02T00:26:32;97138.75;;;4.15;76.74
48216;BME280;34005;48.844;10.098;2023-02-02T00:29:00;97156.81;;;4.15;76.78
48216;BME280;34005;48.844;10.098;2023-02-02T00:31:28;97142.53;;;4.10;76.76
48216;BME280;34005;48.844;10.098;2023-02-02T00:33:56;97144.41;;;4.08;76.57
48216;BME280;34005;48.844;10.098;2023-02-02T00:36:25;97137.75;;;4.06;77.14
48216;BME280;34005;48.844;10.098;2023-02-02T00:38:52;97146.44;;;4.05;76.57
48216;BME280;34005;48.844;10.098;2023-02-02T00:41:20;97144.00;;;4.03;76.59
48216;BME280;34005;48.844;10.098;2023-02-02T00:43:47;97136.25;;;4.03;76.76
48216;BME280;34005;48.844;10.098;2023-02-02T00:46:38;97135.28;;;4.04;77.13
48216;BME280;34005;48.844;10.098;2023-02-02T00:49:05;97147.25;;;4.05;77.08
48216;BME280;34005;48.844;10.098;2023-02-02T00:51:35;97147.25;;;4.05;76.74
48216;BME280;34005;48.844;10.098;2023-02-02T00:54:03;97143.88;;;4.05;77.00
48216;BME280;34005;48.844;10.098;2023-02-02T00:56:30;97139.50;;;4.05;76.91
48216;BME280;34005;48.844;10.098;2023-02-02T00:58:58;97130.97;;;4.05;77.23
48216;BME280;34005;48.844;10.098;2023-02-02T01:01:26;97130.13;;;4.04;77.19
48216;BME280;34005;48.844;10.098;2023-02-02T01:03:53;97124.25;;;4.02;77.59
48216;BME280;34005;48.844;10.098;2023-02-02T01:06:21;97131.19;;;4.02;77.82
48216;BME280;34005;48.844;10.098;2023-02-02T01:08:50;97135.44;;;4.03;77.71
48216;BME280;34005;48.844;10.098;2023-02-02T01:11:18;97154.31;;;4.03;77.80
48216;BME280;34005;48.844;10.098;2023-02-02T01:13:45;97149.16;;;4.03;77.78
48216;BME280;34005;48.844;10.098;2023-02-02T01:16:13;97132.16;;;4.01;77.64
48216;BME280;34005;48.844;10.098;2023-02-02T01:18:41;97140.97;;;3.98;77.48
48216;BME280;34005;48.844;10.098;2023-02-02T01:21:10;97148.72;;;3.98;77.64
48216;BME280;34005;48.844;10.098;2023-02-02T01:23:38;97139.22;;;3.99;77.93
48216;BME280;34005;48.844;10.098;2023-02-02T01:26:09;97135.53;;;4.01;77.74
48216;BME280;34005;48.844;10.098;2023-02-02T01:28:37;97131.19;;;4.02;77.65
48216;BME280;34005;48.844;10.098;2023-02-02T01:31:06;97142.34;;;4.02;78.03
48216;BME280;34005;48.844;10.098;2023-02-02T01:33:34;97142.47;;;4.01;78.16
48216;BME280;34005;48.844;10.098;2023-02-02T01:36:04;97138.25;;;4.00;77.90
48216;BME280;34005;48.844;10.098;2023-02-02T01:38:33;97135.81;;;3.98;77.75
48216;BME280;34005;48.844;10.098;2023-02-02T01:41:01;97128.75;;;4.00;77.89
48216;BME280;34005;48.844;10.098;2023-02-02T01:43:50;97147.50;;;4.02;78.13
48216;BME280;34005;48.844;10.098;2023-02-02T01:46:19;97132.16;;;4.01;78.05
48216;BME280;34005;48.844;10.098;2023-02-02T01:48:51;97143.41;;;4.00;78.15
48216;BME280;34005;48.844;10.098;2023-02-02T01:51:24;97144.50;;;3.97;78.36
48216;BME280;34005;48.844;10.098;2023-02-02T01:53:55;97149.78;;;3.96;78.36
48216;BME280;34005;48.844;10.098;2023-02-02T01:56:27;97145.56;;;3.95;78.34
48216;BME280;34005;48.844;10.098;2023-02-02T01:58:57;97140.53;;;3.93;78.55
48216;BME280;34005;48.844;10.098;2023-02-02T02:01:26;97150.16;;;3.91;78.24
48216;BME280;34005;48.844;10.098;2023-02-02T02:03:54;97146.75;;;3.90;78.18
48216;BME280;34005;48.844;10.098;2023-02-02T02:06:22;97151.00;;;3.91;78.08
48216;BME280;34005;48.844;10.098;2023-02-02T02:08:53;97156.16;;;3.91;78.82
48216;BME280;34005;48.844;10.098;2023-02-02T02:11:22;97149.22;;;3.92;78.46
48216;BME280;34005;48.844;10.098;2023-02-02T02:13:51;97161.44;;;3.90;78.88
48216;BME280;34005;48.844;10.098;2023-02-02T02:16:48;97152.03;;;3.89;79.43
48216;BME280;34005;48.844;10.098;2023-02-02T02:19:26;97148.41;;;3.91;79.38
48216;BME280;34005;48.844;10.098;2023-02-02T02:22:31;97158.16;;;3.88;78.98
48216;BME280;34005;48.844;10.098;2023-02-02T02:25:41;97147.13;;;3.86;79.00
48216;BME280;34005;48.844;10.098;2023-02-02T02:28:48;97153.25;;;3.85;78.98
48216;BME280;34005;48.844;10.098;2023-02-02T02:31:45;97155.25;;;3.81;79.03
48216;BME280;34005;48.844;10.098;2023-02-02T02:34:21;97151.88;;;3.81;79.13
48216;BME280;34005;48.844;10.098;2023-02-02T02:36:57;97155.25;;;3.81;79.05
48216;BME280;34005;48.844;10.098;2023-02-02T02:39:33;97146.81;;;3.79;79.05
48216;BME280;34005;48.844;10.098;2023-02-02T02:42:10;97149.41;;;3.79;79.37
48216;BME280;34005;48.844;10.098;2023-02-02T02:44:40;97157.03;;;3.81;79.03
48216;BME280;34005;48.844;10.098;2023-02-02T02:47:09;97157.72;;;3.83;79.61
48216;BME280;34005;48.844;10.098;2023-02-02T02:49:41;97154.19;;;3.84;79.66
48216;BME280;34005;48.844;10.098;2023-02-02T02:52:09;97138.59;;;3.85;79.21
48216;BME280;34005;48.844;10.098;2023-02-02T02:54:39;97138.44;;;3.87;79.45
48216;BME280;34005;48.844;10.098;2023-02-02T02:57:24;97141.16;;;3.85;79.56
48216;BME280;34005;48.844;10.098;2023-02-02T02:59:59;97145.53;;;3.85;79.48
48216;BME280;34005;48.844;10.098;2023-02-02T03:02:39;97135.19;;;3.85;80.07
48216;BME280;34005;48.844;10.098;2023-02-02T03:05:20;97147.25;;;3.84;79.52
48216;BME280;34005;48.844;10.098;2023-02-02T03:07:58;97148.22;;;3.83;79.71
48216;BME280;34005;48.844;10.098;2023-02-02T03:10:30;97143.06;;;3.83;79.44
48216;BME280;34005;48.844;10.098;2023-02-02T03:12:59;97134.34;;;3.84;79.77
48216;BME280;34005;48.844;10.098;2023-02-02T03:15:26;97145.53;;;3.85;79.62
48216;BME280;34005;48.844;10.098;2023-02-02T03:17:55;97152.31;;;3.86;79.70
48216;BME280;34005;48.844;10.098;2023-02-02T03:20:23;97145.53;;;3.85;79.56
48216;BME280;34005;48.844;10.098;2023-02-02T03:22:50;97145.75;;;3.82;79.66
48216;BME280;34005;48.844;10.098;2023-02-02T03:25:18;97135.31;;;3.83;79.55
48216;BME280;34005;48.844;10.098;2023-02-02T03:27:45;97142.25;;;3.83;80.04
48216;BME280;34005;48.844;10.098;2023-02-02T03:30:13;97145.63;;;3.83;79.82
48216;BME280;34005;48.844;10.098;2023-02-02T03:32:41;97149.84;;;3.84;80.17
48216;BME280;34005;48.844;10.098;2023-02-02T03:35:10;97146.31;;;3.85;80.33
48216;BME280;34005;48.844;10.098;2023-02-02T03:37:38;97159.94;;;3.87;79.94
48216;BME280;34005;48.844;10.098;2023-02-02T03:40:06;97175.25;;;3.89;79.72
48216;BME280;34005;48.844;10.098;2023-02-02T03:42:33;97158.16;;;3.88;79.86
48216;BME280;34005;48.844;10.098;2023-02-02T03:45:01;97149.72;;;3.86;79.82
48216;BME280;34005;48.844;10.098;2023-02-02T03:47:29;97147.94;;;3.86;79.67
48216;BME280;34005;48.844;10.098;2023-02-02T03:49:56;97168.75;;;3.85;79.59
48216;BME280;34005;48.844;10.098;2023-02-02T03:52:25;97161.81;;;3.85;79.63
48216;BME280;34005;48.844;10.098;2023-02-02T03:54:52;97163.59;;;3.85;80.13
48216;BME280;34005;48.844;10.098;2023-02-02T03:57:20;97160.16;;;3.84;80.09
48216;BME280;34005;48.844;10.098;2023-02-02T03:59:48;97162.63;;;3.86;79.75
48216;BME280;34005;48.844;10.098;2023-02-02T04:02:15;97165.09;;;3.87;79.91
48216;BME280;34005;48.844;10.098;2023-02-02T04:04:43;97171.88;;;3.88;79.98
48216;BME280;34005;48.844;10.098;2023-02-02T04:07:10;97167.53;;;3.89;80.38
48216;BME280;34005;48.844;10.098;2023-02-02T04:09:39;97174.34;;;3.90;80.36
48216;BME280;34005;48.844;10.098;2023-02-02T04:12:07;97163.91;;;3.91;80.13
48216;BME280;34005;48.844;10.098;2023-02-02T04:14:34;97160.47;;;3.91;80.64
48216;BME280;34005;48.844;10.098;2023-02-02T04:17:01;97161.31;;;3.91;80.63
48216;BME280;34005;48.844;10.098;2023-02-02T04:19:29;97163.06;;;3.91;80.45
48216;BME280;34005;48.844;10.098;2023-02-02T04:21:56;97167.28;;;3.92;80.86
48216;BME280;34005;48.844;10.098;2023-02-02T04:24:24;97177.63;;;3.92;80.81
48216;BME280;34005;48.844;10.098;2023-02-02T04:26:53;97181.13;;;3.91;80.87
48216;BME280;34005;48.844;10.098;2023-02-02T04:29:21;97181.00;;;3.92;80.61
48216;BME280;34005;48.844;10.098;2023-02-02T04:31:48;97174.06;;;3.93;80.46
48216;BME280;34005;48.844;10.098;2023-02-02T04:34:16;97180.06;;;3.94;80.37
48216;BME280;34005;48.844;10.098;2023-02-02T04:36:43;97182.66;;;3.94;80.51
48216;BME280;34005;48.844;10.098;2023-02-02T04:39:11;97191.22;;;3.94;80.48
48216;BME280;34005;48.844;10.098;2023-02-02T04:41:39;97182.50;;;3.95;80.89
48216;BME280;34005;48.844;10.098;2023-02-02T04:44:12;97182.50;;;3.95;80.48
48216;BME280;34005;48.844;10.098;2023-02-02T04:46:40;97197.88;;;3.97;80.52
48216;BME280;34005;48.844;10.098;2023-02-02T04:49:08;97196.94;;;3.98;80.62
48216;BME280;34005;48.844;10.098;2023-02-02T04:51:36;97208.09;;;3.98;80.54
48216;BME280;34005;48.844;10.098;2023-02-02T04:54:04;97197.78;;;3.98;80.58
48216;BME280;34005;48.844;10.098;2023-02-02T04:56:32;97205.38;;;4.00;80.46
48216;BME280;34005;48.844;10.098;2023-02-02T04:59:00;97202.66;;;4.01;80.58
48216;BME280;34005;48.844;10.098;2023-02-02T05:01:29;97206.06;;;4.02;80.56
48216;BME280;34005;48.844;10.098;2023-02-02T05:03:56;97203.63;;;4.00;80.26
48216;BME280;34005;48.844;10.098;2023-02-02T05:06:24;97216.53;;;4.00;80.51
48216;BME280;34005;48.844;10.098;2023-02-02T05:08:51;97220.75;;;4.01;80.44
48216;BME280;34005;48.844;10.098;2023-02-02T05:11:21;97217.19;;;4.02;80.63
48216;BME280;34005;48.844;10.098;2023-02-02T05:13:50;97220.63;;;4.03;80.45
48216;BME280;34005;48.844;10.098;2023-02-02T05:16:19;97209.44;;;4.02;80.60
48216;BME280;34005;48.844;10.098;2023-02-02T05:18:49;97210.16;;;4.04;80.98
48216;BME280;34005;48.844;10.098;2023-02-02T05:21:17;97214.38;;;4.05;80.78
48216;BME280;34005;48.844;10.098;2023-02-02T05:23:44;97212.50;;;4.07;80.86
48216;BME280;34005;48.844;10.098;2023-02-02T05:26:19;97208.13;;;4.08;81.13
48216;BME280;34005;48.844;10.098;2023-02-02T05:28:47;97215.78;;;4.09;81.09
48216;BME280;34005;48.844;10.098;2023-02-02T05:31:15;97212.22;;;4.10;80.62
48216;BME280;34005;48.844;10.098;2023-02-02T05:33:43;97215.88;;;4.08;80.67
48216;BME280;34005;48.844;10.098;2023-02-02T05:36:12;97214.13;;;4.08;80.71
48216;BME280;34005;48.844;10.098;2023-02-02T05:38:40;97212.22;;;4.10;81.08
48216;BME280;34005;48.844;10.098;2023-02-02T05:41:07;97229.50;;;4.10;80.76
48216;BME280;34005;48.844;10.098;2023-02-02T05:43:35;97230.44;;;4.09;80.93
48216;BME280;34005;48.844;10.098;2023-02-02T05:46:03;97231.25;;;4.09;80.97
48216;BME280;34005;48.844;10.098;2023-02-02T05:48:31;97228.78;;;4.08;80.50
48216;BME280;34005;48.844;10.098;2023-02-02T05:51:02;97228.78;;;4.08;81.19
48216;BME280;34005;48.844;10.098;2023-02-02T05:53:32;97245.94;;;4.09;81.20
48216;BME280;34005;48.844;10.098;2023-02-02T05:55:59;97246.75;;;4.09;80.97
48216;BME280;34005;48.844;10.098;2023-02-02T05:58:27;97238.75;;;4.12;81.14
48216;BME280;34005;48.844;10.098;2023-02-02T06:00:55;97239.44;;;4.15;80.92
48216;BME280;34005;48.844;10.098;2023-02-02T06:03:22;97239.22;;;4.18;81.17
48216;BME280;34005;48.844;10.098;2023-02-02T06:05:50;97238.25;;;4.19;80.96
48216;BME280;34005;48.844;10.098;2023-02-02T06:08:18;97245.19;;;4.18;80.59
48216;BME280;34005;48.844;10.098;2023-02-02T06:10:47;97239.22;;;4.18;80.49
48216;BME280;34005;48.844;10.098;2023-02-02T06:13:14;97244.22;;;4.19;81.04
48216;BME280;34005;48.844;10.098;2023-02-02T06:15:42;97249.28;;;4.21;80.90
48216;BME280;34005;48.844;10.098;2023-02-02T06:18:09;97242.34;;;4.21;80.72
48216;BME280;34005;48.844;10.098;2023-02-02T06:20:37;97240.72;;;4.20;80.77
48216;BME280;34005;48.844;10.098;2023-02-02T06:23:04;97238.94;;;4.21;81.50
48216;BME280;34005;48.844;10.098;2023-02-02T06:25:32;97250.09;;;4.21;81.50
48216;BME280;34005;48.844;10.098;2023-02-02T06:28:01;97246.56;;;4.22;81.80
48216;BME280;34005;48.844;10.098;2023-02-02T06:30:29;97260.28;;;4.23;80.97
48216;BME280;34005;48.844;10.098;2023-02-02T06:32:58;97259.59;;;4.21;81.42
48216;BME280;34005;48.844;10.098;2023-02-02T06:35:26;97252.78;;;4.20;81.11
48216;BME280;34005;48.844;10.098;2023-02-02T06:37:53;97263.25;;;4.18;81.40
48216;BME280;34005;48.844;10.098;2023-02-02T06:40:21;97257.41;;;4.16;81.46
48216;BME280;34005;48.844;10.098;2023-02-02T06:42:54;97259.16;;;4.16;81.53
48216;BME280;34005;48.844;10.098;2023-02-02T06:45:23;97263.63;;;4.13;81.27
48216;BME280;34005;48.844;10.098;2023-02-02T06:47:52;97266.22;;;4.13;81.03
48216;BME280;34005;48.844;10.098;2023-02-02T06:50:20;97257.78;;;4.11;81.04
48216;BME280;34005;48.844;10.098;2023-02-02T06:52:47;97263.06;;;4.10;81.31
48216;BME280;34005;48.844;10.098;2023-02-02T06:55:15;97265.75;;;4.08;81.21
48216;BME280;34005;48.844;10.098;2023-02-02T06:57:43;97260.75;;;4.07;81.36
48216;BME280;34005;48.844;10.098;2023-02-02T07:00:12;97266.72;;;4.07;81.87
48216;BME280;34005;48.844;10.098;2023-02-02T07:02:44;97267.41;;;4.09;81.91
48216;BME280;34005;48.844;10.098;2023-02-02T07:05:12;97262.25;;;4.09;81.48
48216;BME280;34005;48.844;10.098;2023-02-02T07:07:40;97266.44;;;4.10;81.58
48216;BME280;34005;48.844;10.098;2023-02-02T07:10:08;97270.00;;;4.09;81.82
48216;BME280;34005;48.844;10.098;2023-02-02T07:12:55;97273.38;;;4.10;81.42
48216;BME280;34005;48.844;10.098;2023-02-02T07:15:23;97268.09;;;4.11;81.28
48216;BME280;34005;48.844;10.098;2023-02-02T07:17:53;97268.09;;;4.11;81.27
48216;BME280;34005;48.844;10.098;2023-02-02T07:20:20;97276.66;;;4.12;81.48
48216;BME280;34005;48.844;10.098;2023-02-02T07:22:48;97281.94;;;4.10;81.32
48216;BME280;34005;48.844;10.098;2023-02-02T07:25:16;97277.75;;;4.09;81.34
48216;BME280;34005;48.844;10.098;2023-02-02T07:27:43;97279.50;;;4.09;81.57
48216;BME280;34005;48.844;10.098;2023-02-02T07:30:12;97274.69;;;4.04;81.47
48216;BME280;34005;48.844;10.098;2023-02-02T07:32:45;97287.75;;;4.03;81.60
48216;BME280;34005;48.844;10.098;2023-02-02T07:35:14;97274.94;;;4.01;81.67
48216;BME280;34005;48.844;10.098;2023-02-02T07:37:42;97279.41;;;3.99;81.16
48216;BME280;34005;48.844;10.098;2023-02-02T07:40:11;97278.72;;;3.97;81.47
48216;BME280;34005;48.844;10.098;2023-02-02T07:42:38;97278.03;;;3.95;81.62
48216;BME280;34005;48.844;10.098;2023-02-02T07:45:06;97283.88;;;3.97;81.81
48216;BME280;34005;48.844;10.098;2023-02-02T07:47:57;97285.66;;;3.97;81.66
48216;BME280;34005;48.844;10.098;2023-02-02T07:50:28;97285.53;;;3.98;81.59
48216;BME280;34005;48.844;10.098;2023-02-02T07:52:57;97276.56;;;4.02;81.73
48216;BME280;34005;48.844;10.098;2023-02-02T07:55:25;97291.94;;;4.04;82.00
48216;BME280;34005;48.844;10.098;2023-02-02T07:57:53;97288.28;;;4.06;82.11
48216;BME280;34005;48.844;10.098;2023-02-02T08:00:24;97282.09;;;4.09;82.24
48216;BME280;34005;48.844;10.098;2023-02-02T08:02:52;97284.53;;;4.10;82.02
48216;BME280;34005;48.844;10.098;2023-02-02T08:05:20;97283.44;;;4.13;81.78
48216;BME280;34005;48.844;10.098;2023-02-02T08:07:49;97294.47;;;4.15;82.00
48216;BME280;34005;48.844;10.098;2023-02-02T08:10:17;97289.19;;;4.17;81.89
48216;BME280;34005;48.844;10.098;2023-02-02T08:12:44;97292.47;;;4.19;81.63
48216;BME280;34005;48.844;10.098;2023-02-02T08:15:12;97298.22;;;4.22;82.00
48216;BME280;34005;48.844;10.098;2023-02-02T08:17:43;97296.06;;;4.27;81.54
48216;BME280;34005;48.844;10.098;2023-02-02T08:20:12;97298.41;;;4.30;81.68
48216;BME280;34005;48.844;10.098;2023-02-02T08:22:39;97301.66;;;4.32;81.69
48216;BME280;34005;48.844;10.098;2023-02-02T08:25:08;97298.28;;;4.32;81.66
48216;BME280;34005;48.844;10.098;2023-02-02T08:27:36;97306.97;;;4.31;81.40
48216;BME280;34005;48.844;10.098;2023-02-02T08:30:04;97307.91;;;4.30;81.56
48216;BME280;34005;48.844;10.098;2023-02-02T08:32:32;97313.88;;;4.30;81.46
48216;BME280;34005;48.844;10.098;2023-02-02T08:34:59;97321.63;;;4.30;81.44
48216;BME280;34005;48.844;10.098;2023-02-02T08:37:27;97324.38;;;4.29;81.65
48216;BME280;34005;48.844;10.098;2023-02-02T08:39:54;97333.19;;;4.26;81.55
48216;BME280;34005;48.844;10.098;2023-02-02T08:42:23;97329.06;;;4.24;81.29
48216;BME280;34005;48.844;10.098;2023-02-02T08:44:51;97338.47;;;4.25;81.75
48216;BME280;34005;48.844;10.098;2023-02-02T08:47:38;97334.00;;;4.27;81.70
48216;BME280;34005;48.844;10.098;2023-02-02T08:50:08;97336.59;;;4.27;82.04
48216;BME280;34005;48.844;10.098;2023-02-02T08:52:36;97338.22;;;4.28;82.20
48216;BME280;34005;48.844;10.098;2023-02-02T08:55:04;97342.56;;;4.27;82.17
48216;BME280;34005;48.844;10.098;2023-02-02T08:57:33;97335.63;;;4.28;82.40
48216;BME280;34005;48.844;10.098;2023-02-02T09:00:01;97328.56;;;4.30;82.02
48216;BME280;34005;48.844;10.098;2023-02-02T09:02:29;97332.56;;;4.34;82.38
48216;BME280;34005;48.844;10.098;2023-02-02T09:04:57;97332.56;;;4.34;82.30
48216;BME280;34005;48.844;10.098;2023-02-02T09:07:24;97329.72;;;4.37;82.52
48216;BME280;34005;48.844;10.098;2023-02-02T09:09:52;97325.50;;;4.36;82.59
48216;BME280;34005;48.844;10.098;2023-02-02T09:12:21;97325.38;;;4.38;82.53
48216;BME280;34005;48.844;10.098;2023-02-02T09:14:49;97322.66;;;4.39;82.44
48216;BME280;34005;48.844;10.098;2023-02-02T09:17:17;97320.91;;;4.40;82.87
48216;BME280;34005;48.844;10.098;2023-02-02T09:19:44;97335.34;;;4.42;83.18
48216;BME280;34005;48.844;10.098;2023-02-02T09:22:12;97323.94;;;4.45;82.54
48216;BME280;34005;48.844;10.098;2023-02-02T09:24:39;97324.63;;;4.47;82.89
48216;BME280;34005;48.844;10.098;2023-02-02T09:27:07;97333.19;;;4.47;82.46
48216;BME280;34005;48.844;10.098;2023-02-02T09:29:34;97326.13;;;4.49;82.33
48216;BME280;34005;48.844;10.098;2023-02-02T09:32:04;97348.47;;;4.50;82.89
48216;BME280;34005;48.844;10.098;2023-02-02T09:34:31;97339.75;;;4.51;82.73
48216;BME280;34005;48.844;10.098;2023-02-02T09:36:59;97343.97;;;4.52;82.72
48216;BME280;34005;48.844;10.098;2023-02-02T09:39:26;97341.38;;;4.52;82.40
48216;BME280;34005;48.844;10.098;2023-02-02T09:42:08;97356.88;;;4.52;82.71
48216;BME280;34005;48.844;10.098;2023-02-02T09:45:07;97351.69;;;4.52;82.71
48216;BME280;34005;48.844;10.098;2023-02-02T09:48:02;97356.88;;;4.52;82.91
48216;BME280;34005;48.844;10.098;2023-02-02T09:50:43;97354.28;;;4.52;82.65
48216;BME280;34005;48.844;10.098;2023-02-02T09:53:22;97363.59;;;4.55;83.44
48216;BME280;34005;48.844;10.098;2023-02-02T09:55:56;97354.75;;;4.58;83.35
48216;BME280;34005;48.844;10.098;2023-02-02T09:58:27;97351.91;;;4.61;82.76
48216;BME280;34005;48.844;10.098;2023-02-02T10:01:01;97362.94;;;4.63;83.09
48216;BME280;34005;48.844;10.098;2023-02-02T10:03:35;97362.81;;;4.64;82.94
48216;BME280;34005;48.844;10.098;2023-02-02T10:06:13;97361.06;;;4.65;82.39
48216;BME280;34005;48.844;10.098;2023-02-02T10:08:47;97373.84;;;4.66;82.29
48216;BME280;34005;48.844;10.098;2023-02-02T10:11:28;97363.53;;;4.66;82.45
48216;BME280;34005;48.844;10.098;2023-02-02T10:14:00;97370.19;;;4.69;82.73
48216;BME280;34005;48.844;10.098;2023-02-02T10:16:30;97371.81;;;4.70;82.44
48216;BME280;34005;48.844;10.098;2023-02-02T10:19:02;97365.72;;;4.71;82.60
48216;BME280;34005;48.844;10.098;2023-02-02T10:21:35;97367.34;;;4.72;82.78
48216;BME280;34005;48.844;10.098;2023-02-02T10:24:14;97360.28;;;4.74;82.67
48216;BME280;34005;48.844;10.098;2023-02-02T10:26:45;97365.34;;;4.75;82.50
48216;BME280;34005;48.844;10.098;2023-02-02T10:29:23;97362.63;;;4.77;82.77
48216;BME280;34005;48.844;10.098;2023-02-02T10:32:15;97373.66;;;4.79;82.15
48216;BME280;34005;48.844;10.098;2023-02-02T10:34:59;97366.63;;;4.81;82.51
48216;BME280;34005;48.844;10.098;2023-02-02T10:37:44;97367.44;;;4.82;82.06
48216;BME280;34005;48.844;10.098;2023-02-02T10:40:19;97373.53;;;4.81;82.43
48216;BME280;34005;48.844;10.098;2023-02-02T10:43:06;97373.41;;;4.82;82.40
48216;BME280;34005;48.844;10.098;2023-02-02T10:45:56;97376.56;;;4.86;81.93
48216;BME280;34005;48.844;10.098;2023-02-02T10:48:28;97389.50;;;4.86;81.85
48216;BME280;34005;48.844;10.098;2023-02-02T10:51:01;97385.94;;;4.87;82.09
48216;BME280;34005;48.844;10.098;2023-02-02T10:53:30;97383.25;;;4.88;82.75
48216;BME280;34005;48.844;10.098;2023-02-02T10:56:02;97382.44;;;4.88;82.35
48216;BME280;34005;48.844;10.098;2023-02-02T10:58:34;97384.88;;;4.89;82.46
48216;BME280;34005;48.844;10.098;2023-02-02T11:01:07;97384.88;;;4.89;81.71
48216;BME280;34005;48.844;10.098;2023-02-02T11:03:37;97391.00;;;4.88;81.74
48216;BME280;34005;48.844;10.098;2023-02-02T11:06:07;97398.75;;;4.88;82.21
48216;BME280;34005;48.844;10.098;2023-02-02T11:08:53;97397.41;;;4.94;82.29
48216;BME280;34005;48.844;10.098;2023-02-02T11:11:26;97406.81;;;4.95;82.28
48216;BME280;34005;48.844;10.098;2023-02-02T11:13:59;97386.84;;;4.97;82.51
48216;BME280;34005;48.844;10.098;2023-02-02T11:16:29;97398.69;;;5.00;82.30
48216;BME280;34005;48.844;10.098;2023-02-02T11:19:21;97386.34;;;5.03;82.72
48216;BME280;34005;48.844;10.098;2023-02-02T11:21:52;97381.72;;;5.07;82.50
48216;BME280;34005;48.844;10.098;2023-02-02T11:24:22;97385.69;;;5.11;81.99
48216;BME280;34005;48.844;10.098;2023-02-02T11:26:53;97383.09;;;5.11;81.82
48216;BME280;34005;48.844;10.098;2023-02-02T11:29:25;97382.16;;;5.12;81.85
48216;BME280;34005;48.844;10.098;2023-02-02T11:31:53;97382.00;;;5.13;82.06
48216;BME280;34005;48.844;10.098;2023-02-02T11:34:23;97383.78;;;5.13;81.80
48216;BME280;34005;48.844;10.098;2023-02-02T11:37:10;97387.75;;;5.17;82.01
48216;BME280;34005;48.844;10.098;2023-02-02T11:39:39;97379.03;;;5.18;81.87
48216;BME280;34005;48.844;10.098;2023-02-02T11:42:12;97385.88;;;5.19;81.83
48216;BME280;34005;48.844;10.098;2023-02-02T11:44:45;97392.66;;;5.20;81.42
48216;BME280;34005;48.844;10.098;2023-02-02T11:47:19;97391.03;;;5.19;81.32
48216;BME280;34005;48.844;10.098;2023-02-02T11:49:48;97382.59;;;5.17;81.55
48216;BME280;34005;48.844;10.098;2023-02-02T11:52:21;97380.69;;;5.19;81.63
48216;BME280;34005;48.844;10.098;2023-02-02T11:54:52;97379.72;;;5.20;81.59
48216;BME280;34005;48.844;10.098;2023-02-02T11:57:22;97382.31;;;5.20;81.62
48216;BME280;34005;48.844;10.098;2023-02-02T12:00:10;97376.91;;;5.23;82.35
48216;BME280;34005;48.844;10.098;2023-02-02T12:02:44;97376.63;;;5.26;82.25
48216;BME280;34005;48.844;10.098;2023-02-02T12:05:31;97372.16;;;5.28;81.66
48216;BME280;34005;48.844;10.098;2023-02-02T12:08:00;97381.81;;;5.26;81.58
48216;BME280;34005;48.844;10.098;2023-02-02T12:10:32;97376.91;;;5.23;81.49
48216;BME280;34005;48.844;10.098;2023-02-02T12:13:06;97372.25;;;5.17;81.36
48216;BME280;34005;48.844;10.098;2023-02-02T12:15:44;97376.72;;;5.15;82.08
48216;BME280;34005;48.844;10.098;2023-02-02T12:18:28;97374.25;;;5.13;81.60
48216;BME280;34005;48.844;10.098;2023-02-02T12:21:04;97369.22;;;5.12;81.75
48216;BME280;34005;48.844;10.098;2023-02-02T12:23:46;97376.72;;;5.15;82.35
48216;BME280;34005;48.844;10.098;2023-02-02T12:26:20;97381.91;;;5.15;81.50
48216;BME280;34005;48.844;10.098;2023-02-02T12:29:16;97369.78;;;5.15;81.59
48216;BME280;34005;48.844;10.098;2023-02-02T12:32:02;97364.59;;;5.15;81.49
48216;BME280;34005;48.844;10.098;2023-02-02T12:34:42;97367.34;;;5.14;81.84
48216;BME280;34005;48.844;10.098;2023-02-02T12:37:21;97378.63;;;5.13;81.88
48216;BME280;34005;48.844;10.098;2023-02-02T12:40:02;97377.91;;;5.11;81.96
48216;BME280;34005;48.844;10.098;2023-02-02T12:42:48;97381.47;;;5.10;82.01
48216;BME280;34005;48.844;10.098;2023-02-02T12:45:28;97375.72;;;5.06;81.72
48216;BME280;34005;48.844;10.098;2023-02-02T12:48:12;97357.75;;;5.05;82.29
48216;BME280;34005;48.844;10.098;2023-02-02T12:50:53;97364.81;;;5.03;81.74
48216;BME280;34005;48.844;10.098;2023-02-02T12:53:33;97362.91;;;5.05;82.16
48216;BME280;34005;48.844;10.098;2023-02-02T12:56:15;97367.16;;;5.06;81.76
48216;BME280;34005;48.844;10.098;2023-02-02T12:58:52;97370.56;;;5.06;82.11
48216;BME280;34005;48.844;10.098;2023-02-02T13:01:38;97384.44;;;5.05;82.04
48216;BME280;34005;48.844;10.098;2023-02-02T13:04:26;97385.50;;;5.03;81.57
48216;BME280;34005;48.844;10.098;2023-02-02T13:07:10;97378.81;;;5.00;81.95
48216;BME280;34005;48.844;10.098;2023-02-02T13:09:44;97383.16;;;5.00;82.15
48216;BME280;34005;48.844;10.098;2023-02-02T13:12:18;97390.94;;;5.00;82.39
48216;BME280;34005;48.844;10.098;2023-02-02T13:14:50;97401.97;;;5.02;82.23
48216;BME280;34005;48.844;10.098;2023-02-02T13:17:22;97396.91;;;5.00;82.23
48216;BME280;34005;48.844;10.098;2023-02-02T13:19:51;97399.38;;;5.02;82.63
48216;BME280;34005;48.844;10.098;2023-02-02T13:22:20;97388.06;;;5.03;82.35
48216;BME280;34005;48.844;10.098;2023-02-02T13:24:50;97386.34;;;5.03;81.87